e-Mail: Password: Lost your password? Click here. - Register a new user

c h a v e z j u a r e z . c o m

Weather - Tiempo - Wetter - Temps

METAR DATA MMMX (Mexico City)

Mexico City / Licenci, Mexico (MMMX) 19-26N 099-06W
Jul 03, 2020 - 05:52 PM EDT / 2020.07.03 2152 UTC
Wind: from the NE (050 degrees) at 12 MPH (10 KT):0
Visibility: 10 mile(s):0
Sky conditions: mostly cloudy
Temperature: 78 F (26 C)
Dew Point: 33 F (1 C)
Relative Humidity: 19%
Pressure (altimeter): 30.21 in. Hg (1023 hPa)
ob: MMMX 032152Z 05010KT 10SM BKN020 26/01 A3021 NOSIG RMK 8/200 HZY
cycle: 22

Mexico City

St. Prex




Current weather alarms for Switzerland


www.wetteralarm.ch